Terminal Aerodrome Forecast
Issued by NWS

Home | Current Version | Previous Version | Text Only | Print | Product List | Glossary On
Versions: 1 2 3 4 5 6 7 8 9 10 11 12 13 14 15 16 17 18 19 20 21 22
485
FTUS46 KLOX 231324 AAA
TAFOXR
TAF AMD
KOXR 231324Z 2313/2412 VRB03KT 1SM BR OVC002
     FM231600 VRB03KT 4SM BR OVC004
     FM231800 25006KT 6SM BR OVC007
     FM232000 27010KT P6SM FEW008
     FM240300 31006KT 4SM BR OVC006=

USA.gov is the U.S. government's official web portal to all federal, state and local government web resources and services.